sensor_id;sensor_type;location;lat;lon;timestamp;P1;durP1;ratioP1;P2;durP2;ratioP2
38972;SDS011;25333;50.762;4.470;2023-03-12T00:00:41;10.02;;;6.43;;
38972;SDS011;25333;50.762;4.470;2023-03-12T00:03:07;11.43;;;5.72;;
38972;SDS011;25333;50.762;4.470;2023-03-12T00:05:35;11.07;;;5.82;;
38972;SDS011;25333;50.762;4.470;2023-03-12T00:08:02;9.18;;;5.95;;
38972;SDS011;25333;50.762;4.470;2023-03-12T00:10:28;9.05;;;5.70;;
38972;SDS011;25333;50.762;4.470;2023-03-12T00:12:54;8.25;;;4.93;;
38972;SDS011;25333;50.762;4.470;2023-03-12T00:15:21;9.47;;;5.13;;
38972;SDS011;25333;50.762;4.470;2023-03-12T00:17:46;7.50;;;4.87;;
38972;SDS011;25333;50.762;4.470;2023-03-12T00:20:12;8.90;;;5.03;;
38972;SDS011;25333;50.762;4.470;2023-03-12T00:22:38;7.85;;;4.95;;
38972;SDS011;25333;50.762;4.470;2023-03-12T00:25:05;8.43;;;5.03;;
38972;SDS011;25333;50.762;4.470;2023-03-12T00:27:35;8.85;;;5.05;;
38972;SDS011;25333;50.762;4.470;2023-03-12T00:30:01;8.60;;;5.43;;
38972;SDS011;25333;50.762;4.470;2023-03-12T00:32:27;11.90;;;6.03;;
38972;SDS011;25333;50.762;4.470;2023-03-12T00:34:53;9.37;;;5.27;;
38972;SDS011;25333;50.762;4.470;2023-03-12T00:37:20;7.13;;;4.93;;
38972;SDS011;25333;50.762;4.470;2023-03-12T00:39:46;9.25;;;5.32;;
38972;SDS011;25333;50.762;4.470;2023-03-12T00:42:12;8.07;;;4.73;;
38972;SDS011;25333;50.762;4.470;2023-03-12T00:44:38;9.40;;;5.07;;
38972;SDS011;25333;50.762;4.470;2023-03-12T00:47:04;10.88;;;4.90;;
38972;SDS011;25333;50.762;4.470;2023-03-12T00:49:30;6.90;;;3.63;;
38972;SDS011;25333;50.762;4.470;2023-03-12T00:55:10;8.50;;;4.10;;
38972;SDS011;25333;50.762;4.470;2023-03-12T00:57:36;7.22;;;3.97;;
38972;SDS011;25333;50.762;4.470;2023-03-12T01:00:02;7.85;;;4.18;;
38972;SDS011;25333;50.762;4.470;2023-03-12T01:02:34;8.87;;;3.77;;
38972;SDS011;25333;50.762;4.470;2023-03-12T01:04:59;8.33;;;4.17;;
38972;SDS011;25333;50.762;4.470;2023-03-12T01:07:25;7.83;;;3.70;;
38972;SDS011;25333;50.762;4.470;2023-03-12T01:09:51;5.93;;;3.08;;
38972;SDS011;25333;50.762;4.470;2023-03-12T01:12:16;7.93;;;3.80;;
38972;SDS011;25333;50.762;4.470;2023-03-12T01:14:42;5.37;;;3.17;;
38972;SDS011;25333;50.762;4.470;2023-03-12T01:17:08;8.43;;;3.93;;
38972;SDS011;25333;50.762;4.470;2023-03-12T01:19:34;5.80;;;2.77;;
38972;SDS011;25333;50.762;4.470;2023-03-12T01:22:00;5.33;;;2.57;;
38972;SDS011;25333;50.762;4.470;2023-03-12T01:24:26;4.95;;;2.67;;
38972;SDS011;25333;50.762;4.470;2023-03-12T01:26:52;7.07;;;3.00;;
38972;SDS011;25333;50.762;4.470;2023-03-12T01:29:18;8.20;;;2.70;;
38972;SDS011;25333;50.762;4.470;2023-03-12T01:31:44;4.53;;;2.77;;
38972;SDS011;25333;50.762;4.470;2023-03-12T01:34:10;5.73;;;2.50;;
38972;SDS011;25333;50.762;4.470;2023-03-12T01:36:36;5.53;;;2.38;;
38972;SDS011;25333;50.762;4.470;2023-03-12T01:39:02;7.50;;;2.33;;
38972;SDS011;25333;50.762;4.470;2023-03-12T01:41:29;5.78;;;1.92;;
38972;SDS011;25333;50.762;4.470;2023-03-12T01:43:58;5.93;;;2.33;;
38972;SDS011;25333;50.762;4.470;2023-03-12T01:51:38;5.32;;;2.10;;
38972;SDS011;25333;50.762;4.470;2023-03-12T01:54:21;4.70;;;1.73;;
38972;SDS011;25333;50.762;4.470;2023-03-12T01:56:55;5.97;;;2.00;;
38972;SDS011;25333;50.762;4.470;2023-03-12T01:59:23;4.43;;;1.90;;
38972;SDS011;25333;50.762;4.470;2023-03-12T02:01:53;7.13;;;2.03;;
38972;SDS011;25333;50.762;4.470;2023-03-12T02:04:19;5.43;;;1.65;;
38972;SDS011;25333;50.762;4.470;2023-03-12T02:06:49;6.15;;;2.00;;
38972;SDS011;25333;50.762;4.470;2023-03-12T02:09:37;7.82;;;2.58;;
38972;SDS011;25333;50.762;4.470;2023-03-12T02:12:06;6.25;;;2.08;;
38972;SDS011;25333;50.762;4.470;2023-03-12T02:14:32;3.95;;;1.92;;
38972;SDS011;25333;50.762;4.470;2023-03-12T02:16:58;5.22;;;2.20;;
38972;SDS011;25333;50.762;4.470;2023-03-12T02:21:56;2.38;;;1.67;;
38972;SDS011;25333;50.762;4.470;2023-03-12T02:27:01;4.88;;;2.00;;
38972;SDS011;25333;50.762;4.470;2023-03-12T02:29:27;3.72;;;1.45;;
38972;SDS011;25333;50.762;4.470;2023-03-12T02:31:56;7.28;;;2.22;;
38972;SDS011;25333;50.762;4.470;2023-03-12T02:34:24;7.47;;;1.90;;
38972;SDS011;25333;50.762;4.470;2023-03-12T02:36:50;5.82;;;2.05;;
38972;SDS011;25333;50.762;4.470;2023-03-12T02:39:15;3.93;;;2.03;;
38972;SDS011;25333;50.762;4.470;2023-03-12T02:41:42;6.35;;;1.83;;
38972;SDS011;25333;50.762;4.470;2023-03-12T02:46:42;5.55;;;1.85;;
38972;SDS011;25333;50.762;4.470;2023-03-12T02:49:10;4.88;;;2.00;;
38972;SDS011;25333;50.762;4.470;2023-03-12T02:51:37;5.20;;;1.75;;
38972;SDS011;25333;50.762;4.470;2023-03-12T02:54:03;4.33;;;2.20;;
38972;SDS011;25333;50.762;4.470;2023-03-12T02:56:30;4.35;;;2.10;;
38972;SDS011;25333;50.762;4.470;2023-03-12T02:58:55;7.80;;;2.72;;
38972;SDS011;25333;50.762;4.470;2023-03-12T03:01:21;6.50;;;2.37;;
38972;SDS011;25333;50.762;4.470;2023-03-12T03:03:47;7.33;;;2.40;;
38972;SDS011;25333;50.762;4.470;2023-03-12T03:06:13;6.35;;;2.22;;
38972;SDS011;25333;50.762;4.470;2023-03-12T03:08:39;5.53;;;2.53;;
38972;SDS011;25333;50.762;4.470;2023-03-12T03:11:05;4.97;;;2.40;;
38972;SDS011;25333;50.762;4.470;2023-03-12T03:13:31;7.65;;;2.28;;
38972;SDS011;25333;50.762;4.470;2023-03-12T03:15:57;4.47;;;1.60;;
38972;SDS011;25333;50.762;4.470;2023-03-12T03:18:25;5.38;;;2.10;;
38972;SDS011;25333;50.762;4.470;2023-03-12T03:21:05;5.85;;;2.00;;
38972;SDS011;25333;50.762;4.470;2023-03-12T03:23:32;4.68;;;1.88;;
38972;SDS011;25333;50.762;4.470;2023-03-12T03:25:58;5.85;;;1.77;;
38972;SDS011;25333;50.762;4.470;2023-03-12T03:28:25;3.88;;;2.33;;
38972;SDS011;25333;50.762;4.470;2023-03-12T03:30:53;4.50;;;2.78;;
38972;SDS011;25333;50.762;4.470;2023-03-12T03:33:22;7.00;;;2.00;;
38972;SDS011;25333;50.762;4.470;2023-03-12T03:35:48;6.78;;;2.25;;
38972;SDS011;25333;50.762;4.470;2023-03-12T03:38:14;6.28;;;2.45;;
38972;SDS011;25333;50.762;4.470;2023-03-12T03:40:40;8.07;;;1.88;;
38972;SDS011;25333;50.762;4.470;2023-03-12T03:43:06;6.75;;;2.33;;
38972;SDS011;25333;50.762;4.470;2023-03-12T03:45:31;5.70;;;2.17;;
38972;SDS011;25333;50.762;4.470;2023-03-12T03:47:57;5.13;;;2.05;;
38972;SDS011;25333;50.762;4.470;2023-03-12T03:50:23;6.40;;;2.22;;
38972;SDS011;25333;50.762;4.470;2023-03-12T03:52:48;5.18;;;2.63;;
38972;SDS011;25333;50.762;4.470;2023-03-12T03:55:14;5.80;;;2.60;;
38972;SDS011;25333;50.762;4.470;2023-03-12T03:57:40;4.30;;;2.57;;
38972;SDS011;25333;50.762;4.470;2023-03-12T04:00:05;3.55;;;2.22;;
38972;SDS011;25333;50.762;4.470;2023-03-12T04:02:34;4.95;;;2.28;;
38972;SDS011;25333;50.762;4.470;2023-03-12T04:05:00;6.37;;;2.03;;
38972;SDS011;25333;50.762;4.470;2023-03-12T04:07:26;7.00;;;3.47;;
38972;SDS011;25333;50.762;4.470;2023-03-12T04:09:52;6.43;;;2.55;;
38972;SDS011;25333;50.762;4.470;2023-03-12T04:12:18;5.30;;;2.97;;
38972;SDS011;25333;50.762;4.470;2023-03-12T04:14:44;3.63;;;2.65;;
38972;SDS011;25333;50.762;4.470;2023-03-12T04:17:10;8.30;;;3.67;;
38972;SDS011;25333;50.762;4.470;2023-03-12T04:19:36;8.67;;;3.00;;
38972;SDS011;25333;50.762;4.470;2023-03-12T04:22:02;9.70;;;3.75;;
38972;SDS011;25333;50.762;4.470;2023-03-12T04:24:28;4.45;;;3.00;;
38972;SDS011;25333;50.762;4.470;2023-03-12T04:26:54;6.05;;;3.70;;
38972;SDS011;25333;50.762;4.470;2023-03-12T04:29:20;4.50;;;2.90;;
38972;SDS011;25333;50.762;4.470;2023-03-12T04:31:46;7.53;;;4.13;;
38972;SDS011;25333;50.762;4.470;2023-03-12T04:34:11;7.38;;;3.70;;
38972;SDS011;25333;50.762;4.470;2023-03-12T04:36:37;8.38;;;4.00;;
38972;SDS011;25333;50.762;4.470;2023-03-12T04:39:03;9.35;;;3.90;;
38972;SDS011;25333;50.762;4.470;2023-03-12T04:41:38;4.95;;;3.50;;
38972;SDS011;25333;50.762;4.470;2023-03-12T04:44:03;11.03;;;4.23;;
38972;SDS011;25333;50.762;4.470;2023-03-12T04:46:29;7.97;;;4.03;;
38972;SDS011;25333;50.762;4.470;2023-03-12T04:48:55;8.97;;;4.60;;
38972;SDS011;25333;50.762;4.470;2023-03-12T04:51:22;7.13;;;4.60;;
38972;SDS011;25333;50.762;4.470;2023-03-12T04:53:48;9.48;;;5.22;;
38972;SDS011;25333;50.762;4.470;2023-03-12T04:56:13;8.30;;;4.40;;
38972;SDS011;25333;50.762;4.470;2023-03-12T04:58:39;5.72;;;4.10;;
38972;SDS011;25333;50.762;4.470;2023-03-12T05:01:05;5.85;;;4.50;;
38972;SDS011;25333;50.762;4.470;2023-03-12T05:03:30;8.73;;;5.33;;
38972;SDS011;25333;50.762;4.470;2023-03-12T05:05:56;7.43;;;4.82;;
38972;SDS011;25333;50.762;4.470;2023-03-12T05:08:22;10.30;;;5.90;;
38972;SDS011;25333;50.762;4.470;2023-03-12T05:10:48;8.70;;;5.63;;
38972;SDS011;25333;50.762;4.470;2023-03-12T05:13:16;9.30;;;5.32;;
38972;SDS011;25333;50.762;4.470;2023-03-12T05:15:44;13.23;;;5.72;;
38972;SDS011;25333;50.762;4.470;2023-03-12T05:18:11;8.30;;;5.68;;
38972;SDS011;25333;50.762;4.470;2023-03-12T05:20:37;7.63;;;5.57;;
38972;SDS011;25333;50.762;4.470;2023-03-12T05:23:03;10.05;;;5.63;;
38972;SDS011;25333;50.762;4.470;2023-03-12T05:25:28;9.60;;;6.68;;
38972;SDS011;25333;50.762;4.470;2023-03-12T05:27:54;9.27;;;5.80;;
38972;SDS011;25333;50.762;4.470;2023-03-12T05:30:20;8.93;;;5.93;;
38972;SDS011;25333;50.762;4.470;2023-03-12T05:32:46;14.23;;;6.67;;
38972;SDS011;25333;50.762;4.470;2023-03-12T05:35:11;8.48;;;6.18;;
38972;SDS011;25333;50.762;4.470;2023-03-12T05:37:37;11.63;;;6.93;;
38972;SDS011;25333;50.762;4.470;2023-03-12T05:40:03;9.77;;;6.70;;
38972;SDS011;25333;50.762;4.470;2023-03-12T05:42:29;9.95;;;6.45;;
38972;SDS011;25333;50.762;4.470;2023-03-12T05:44:55;10.48;;;7.05;;
38972;SDS011;25333;50.762;4.470;2023-03-12T05:47:21;10.50;;;7.22;;
38972;SDS011;25333;50.762;4.470;2023-03-12T05:49:46;9.85;;;7.25;;
38972;SDS011;25333;50.762;4.470;2023-03-12T05:52:12;10.53;;;7.47;;
38972;SDS011;25333;50.762;4.470;2023-03-12T05:54:38;15.13;;;8.07;;
38972;SDS011;25333;50.762;4.470;2023-03-12T05:57:03;13.82;;;8.57;;
38972;SDS011;25333;50.762;4.470;2023-03-12T05:59:29;9.50;;;7.80;;
38972;SDS011;25333;50.762;4.470;2023-03-12T06:01:55;12.38;;;8.23;;
38972;SDS011;25333;50.762;4.470;2023-03-12T06:04:21;11.77;;;9.32;;
38972;SDS011;25333;50.762;4.470;2023-03-12T06:06:46;12.43;;;9.37;;
38972;SDS011;25333;50.762;4.470;2023-03-12T06:09:12;11.73;;;9.10;;
38972;SDS011;25333;50.762;4.470;2023-03-12T06:11:38;15.55;;;10.38;;
38972;SDS011;25333;50.762;4.470;2023-03-12T06:14:03;13.23;;;9.70;;
38972;SDS011;25333;50.762;4.470;2023-03-12T06:16:29;11.15;;;8.77;;
38972;SDS011;25333;50.762;4.470;2023-03-12T06:18:56;14.43;;;9.90;;
38972;SDS011;25333;50.762;4.470;2023-03-12T06:21:27;16.45;;;10.75;;
38972;SDS011;25333;50.762;4.470;2023-03-12T06:23:54;13.57;;;9.67;;
38972;SDS011;25333;50.762;4.470;2023-03-12T06:26:20;13.10;;;10.57;;
38972;SDS011;25333;50.762;4.470;2023-03-12T06:28:47;12.73;;;8.87;;
38972;SDS011;25333;50.762;4.470;2023-03-12T06:31:14;15.75;;;9.85;;
38972;SDS011;25333;50.762;4.470;2023-03-12T06:33:40;16.75;;;9.45;;
38972;SDS011;25333;50.762;4.470;2023-03-12T06:36:06;15.77;;;9.55;;
38972;SDS011;25333;50.762;4.470;2023-03-12T06:38:33;12.25;;;9.55;;
38972;SDS011;25333;50.762;4.470;2023-03-12T06:41:05;15.13;;;9.60;;
38972;SDS011;25333;50.762;4.470;2023-03-12T06:43:36;15.07;;;9.13;;
38972;SDS011;25333;50.762;4.470;2023-03-12T06:46:03;15.90;;;10.13;;
38972;SDS011;25333;50.762;4.470;2023-03-12T06:48:31;15.33;;;9.80;;
38972;SDS011;25333;50.762;4.470;2023-03-12T06:50:57;17.73;;;10.05;;
38972;SDS011;25333;50.762;4.470;2023-03-12T06:53:24;13.77;;;9.95;;
38972;SDS011;25333;50.762;4.470;2023-03-12T06:55:50;16.25;;;11.32;;
38972;SDS011;25333;50.762;4.470;2023-03-12T06:58:16;13.77;;;9.45;;
38972;SDS011;25333;50.762;4.470;2023-03-12T07:00:42;15.43;;;10.20;;
38972;SDS011;25333;50.762;4.470;2023-03-12T07:03:08;17.17;;;10.13;;
38972;SDS011;25333;50.762;4.470;2023-03-12T07:05:34;14.57;;;10.00;;
38972;SDS011;25333;50.762;4.470;2023-03-12T07:08:01;13.43;;;9.13;;
38972;SDS011;25333;50.762;4.470;2023-03-12T07:10:27;17.83;;;10.63;;
38972;SDS011;25333;50.762;4.470;2023-03-12T07:13:00;19.23;;;11.02;;
38972;SDS011;25333;50.762;4.470;2023-03-12T07:15:25;16.58;;;10.27;;
38972;SDS011;25333;50.762;4.470;2023-03-12T07:17:51;21.30;;;10.95;;
38972;SDS011;25333;50.762;4.470;2023-03-12T07:20:17;17.42;;;10.38;;
38972;SDS011;25333;50.762;4.470;2023-03-12T07:22:43;18.57;;;9.67;;
38972;SDS011;25333;50.762;4.470;2023-03-12T07:25:09;18.60;;;8.87;;
38972;SDS011;25333;50.762;4.470;2023-03-12T07:27:35;18.83;;;10.18;;
38972;SDS011;25333;50.762;4.470;2023-03-12T07:30:00;17.67;;;9.77;;
38972;SDS011;25333;50.762;4.470;2023-03-12T07:32:26;20.90;;;10.05;;
38972;SDS011;25333;50.762;4.470;2023-03-12T07:34:53;17.08;;;10.00;;
38972;SDS011;25333;50.762;4.470;2023-03-12T07:37:19;16.07;;;10.20;;
38972;SDS011;25333;50.762;4.470;2023-03-12T07:39:44;17.08;;;9.70;;
38972;SDS011;25333;50.762;4.470;2023-03-12T07:42:15;14.88;;;8.88;;
38972;SDS011;25333;50.762;4.470;2023-03-12T07:44:40;18.98;;;10.20;;
38972;SDS011;25333;50.762;4.470;2023-03-12T07:47:06;23.30;;;10.02;;
38972;SDS011;25333;50.762;4.470;2023-03-12T07:49:32;18.23;;;9.53;;
38972;SDS011;25333;50.762;4.470;2023-03-12T07:51:57;16.65;;;9.38;;
38972;SDS011;25333;50.762;4.470;2023-03-12T07:54:23;17.00;;;9.57;;
38972;SDS011;25333;50.762;4.470;2023-03-12T07:56:54;21.00;;;9.95;;
38972;SDS011;25333;50.762;4.470;2023-03-12T07:59:22;22.45;;;10.73;;
38972;SDS011;25333;50.762;4.470;2023-03-12T08:01:49;26.02;;;11.60;;
38972;SDS011;25333;50.762;4.470;2023-03-12T08:04:16;27.17;;;12.20;;
38972;SDS011;25333;50.762;4.470;2023-03-12T08:06:42;30.88;;;13.38;;
38972;SDS011;25333;50.762;4.470;2023-03-12T08:09:08;34.90;;;13.38;;
38972;SDS011;25333;50.762;4.470;2023-03-12T08:11:34;36.67;;;14.13;;
38972;SDS011;25333;50.762;4.470;2023-03-12T08:14:01;38.30;;;14.57;;
38972;SDS011;25333;50.762;4.470;2023-03-12T08:16:31;31.50;;;15.07;;
38972;SDS011;25333;50.762;4.470;2023-03-12T08:18:57;44.00;;;16.65;;
38972;SDS011;25333;50.762;4.470;2023-03-12T08:21:22;42.65;;;16.25;;
38972;SDS011;25333;50.762;4.470;2023-03-12T08:23:48;36.35;;;16.33;;
38972;SDS011;25333;50.762;4.470;2023-03-12T08:26:14;38.13;;;16.00;;
38972;SDS011;25333;50.762;4.470;2023-03-12T08:28:40;40.90;;;15.88;;
38972;SDS011;25333;50.762;4.470;2023-03-12T08:31:06;43.22;;;17.02;;
38972;SDS011;25333;50.762;4.470;2023-03-12T08:33:34;46.73;;;17.60;;
38972;SDS011;25333;50.762;4.470;2023-03-12T08:36:00;32.15;;;14.85;;
38972;SDS011;25333;50.762;4.470;2023-03-12T08:38:26;41.97;;;16.87;;
38972;SDS011;25333;50.762;4.470;2023-03-12T08:40:59;44.90;;;16.23;;
38972;SDS011;25333;50.762;4.470;2023-03-12T08:43:25;45.88;;;17.50;;
38972;SDS011;25333;50.762;4.470;2023-03-12T08:45:54;39.47;;;17.27;;
38972;SDS011;25333;50.762;4.470;2023-03-12T08:48:21;42.53;;;16.92;;
38972;SDS011;25333;50.762;4.470;2023-03-12T08:50:47;38.42;;;16.55;;
38972;SDS011;25333;50.762;4.470;2023-03-12T08:53:12;37.45;;;16.33;;
38972;SDS011;25333;50.762;4.470;2023-03-12T08:55:42;40.35;;;15.07;;
38972;SDS011;25333;50.762;4.470;2023-03-12T08:58:15;44.63;;;16.13;;
38972;SDS011;25333;50.762;4.470;2023-03-12T09:00:41;45.35;;;15.32;;
38972;SDS011;25333;50.762;4.470;2023-03-12T09:03:09;39.60;;;16.20;;
38972;SDS011;25333;50.762;4.470;2023-03-12T09:05:38;41.60;;;15.02;;
38972;SDS011;25333;50.762;4.470;2023-03-12T09:08:08;39.00;;;14.90;;
38972;SDS011;25333;50.762;4.470;2023-03-12T09:10:34;48.50;;;14.50;;
38972;SDS011;25333;50.762;4.470;2023-03-12T09:13:02;38.50;;;14.68;;
38972;SDS011;25333;50.762;4.470;2023-03-12T09:15:29;42.57;;;14.20;;
38972;SDS011;25333;50.762;4.470;2023-03-12T09:17:55;43.28;;;13.63;;
38972;SDS011;25333;50.762;4.470;2023-03-12T09:20:22;39.97;;;14.73;;
38972;SDS011;25333;50.762;4.470;2023-03-12T09:22:57;44.58;;;14.63;;
38972;SDS011;25333;50.762;4.470;2023-03-12T09:25:22;44.67;;;15.27;;
38972;SDS011;25333;50.762;4.470;2023-03-12T09:27:49;38.28;;;14.07;;
38972;SDS011;25333;50.762;4.470;2023-03-12T09:30:16;47.10;;;15.90;;
38972;SDS011;25333;50.762;4.470;2023-03-12T09:32:43;42.50;;;15.32;;
38972;SDS011;25333;50.762;4.470;2023-03-12T09:35:10;39.08;;;14.65;;
38972;SDS011;25333;50.762;4.470;2023-03-12T09:37:36;36.00;;;13.07;;
38972;SDS011;25333;50.762;4.470;2023-03-12T09:40:15;42.95;;;13.68;;
38972;SDS011;25333;50.762;4.470;2023-03-12T09:42:47;44.47;;;14.20;;
38972;SDS011;25333;50.762;4.470;2023-03-12T09:45:20;39.22;;;12.63;;
38972;SDS011;25333;50.762;4.470;2023-03-12T09:47:53;36.45;;;12.90;;
38972;SDS011;25333;50.762;4.470;2023-03-12T09:50:24;41.35;;;13.23;;
38972;SDS011;25333;50.762;4.470;2023-03-12T09:52:55;30.15;;;11.68;;
38972;SDS011;25333;50.762;4.470;2023-03-12T09:55:26;41.13;;;12.55;;
38972;SDS011;25333;50.762;4.470;2023-03-12T09:57:59;46.97;;;13.70;;
38972;SDS011;25333;50.762;4.470;2023-03-12T10:00:32;41.50;;;12.73;;
38972;SDS011;25333;50.762;4.470;2023-03-12T10:11:16;36.13;;;11.23;;
38972;SDS011;25333;50.762;4.470;2023-03-12T10:21:56;42.63;;;12.00;;
38972;SDS011;25333;50.762;4.470;2023-03-12T10:27:32;33.60;;;10.05;;
38972;SDS011;25333;50.762;4.470;2023-03-12T10:30:01;33.40;;;9.70;;
38972;SDS011;25333;50.762;4.470;2023-03-12T10:32:41;29.45;;;9.05;;
38972;SDS011;25333;50.762;4.470;2023-03-12T10:35:21;30.35;;;9.75;;
38972;SDS011;25333;50.762;4.470;2023-03-12T10:37:58;26.70;;;9.85;;
38972;SDS011;25333;50.762;4.470;2023-03-12T10:40:29;28.48;;;8.48;;
38972;SDS011;25333;50.762;4.470;2023-03-12T10:42:59;31.40;;;8.80;;
38972;SDS011;25333;50.762;4.470;2023-03-12T10:47:55;24.77;;;8.90;;
38972;SDS011;25333;50.762;4.470;2023-03-12T10:50:27;26.10;;;8.57;;
38972;SDS011;25333;50.762;4.470;2023-03-12T10:58:34;22.50;;;7.97;;
38972;SDS011;25333;50.762;4.470;2023-03-12T11:01:03;34.65;;;8.43;;
38972;SDS011;25333;50.762;4.470;2023-03-12T11:03:30;25.27;;;8.48;;
38972;SDS011;25333;50.762;4.470;2023-03-12T11:05:58;22.90;;;7.68;;
38972;SDS011;25333;50.762;4.470;2023-03-12T11:08:27;25.25;;;8.40;;
38972;SDS011;25333;50.762;4.470;2023-03-12T11:17:21;26.90;;;7.90;;
38972;SDS011;25333;50.762;4.470;2023-03-12T11:22:44;25.50;;;6.60;;
38972;SDS011;25333;50.762;4.470;2023-03-12T11:31:24;22.10;;;6.18;;
38972;SDS011;25333;50.762;4.470;2023-03-12T11:34:17;22.30;;;6.32;;
38972;SDS011;25333;50.762;4.470;2023-03-12T11:58:44;25.38;;;7.15;;
38972;SDS011;25333;50.762;4.470;2023-03-12T12:04:06;31.50;;;8.02;;
38972;SDS011;25333;50.762;4.470;2023-03-12T12:09:24;28.08;;;7.88;;
38972;SDS011;25333;50.762;4.470;2023-03-12T12:12:05;22.17;;;7.72;;
38972;SDS011;25333;50.762;4.470;2023-03-12T12:14:45;33.17;;;8.30;;
38972;SDS011;25333;50.762;4.470;2023-03-12T12:17:24;28.33;;;8.15;;
38972;SDS011;25333;50.762;4.470;2023-03-12T12:26:21;39.25;;;8.50;;
38972;SDS011;25333;50.762;4.470;2023-03-12T12:32:00;23.23;;;5.57;;
38972;SDS011;25333;50.762;4.470;2023-03-12T12:37:20;25.27;;;6.32;;
38972;SDS011;25333;50.762;4.470;2023-03-12T12:39:53;26.83;;;6.53;;
38972;SDS011;25333;50.762;4.470;2023-03-12T12:46:13;18.48;;;5.00;;
38972;SDS011;25333;50.762;4.470;2023-03-12T12:51:18;23.67;;;5.53;;
38972;SDS011;25333;50.762;4.470;2023-03-12T12:59:17;21.52;;;5.85;;
38972;SDS011;25333;50.762;4.470;2023-03-12T13:01:57;17.75;;;5.13;;
38972;SDS011;25333;50.762;4.470;2023-03-12T13:04:35;15.02;;;4.60;;
38972;SDS011;25333;50.762;4.470;2023-03-12T13:09:41;20.33;;;5.20;;
38972;SDS011;25333;50.762;4.470;2023-03-12T13:14:49;16.60;;;4.85;;
38972;SDS011;25333;50.762;4.470;2023-03-12T13:17:21;25.48;;;5.32;;
38972;SDS011;25333;50.762;4.470;2023-03-12T13:19:52;25.15;;;5.68;;
38972;SDS011;25333;50.762;4.470;2023-03-12T13:22:38;20.00;;;5.78;;
38972;SDS011;25333;50.762;4.470;2023-03-12T13:27:39;20.52;;;4.88;;
38972;SDS011;25333;50.762;4.470;2023-03-12T13:35:32;17.90;;;5.45;;
38972;SDS011;25333;50.762;4.470;2023-03-12T13:38:03;20.27;;;5.30;;
38972;SDS011;25333;50.762;4.470;2023-03-12T13:46:04;17.92;;;5.22;;
38972;SDS011;25333;50.762;4.470;2023-03-12T13:48:34;20.85;;;5.72;;
38972;SDS011;25333;50.762;4.470;2023-03-12T13:51:14;22.08;;;6.03;;
38972;SDS011;25333;50.762;4.470;2023-03-12T13:53:46;21.17;;;4.80;;
38972;SDS011;25333;50.762;4.470;2023-03-12T13:56:16;21.05;;;5.47;;
38972;SDS011;25333;50.762;4.470;2023-03-12T13:58:53;15.00;;;5.05;;
38972;SDS011;25333;50.762;4.470;2023-03-12T14:01:28;17.52;;;4.70;;
38972;SDS011;25333;50.762;4.470;2023-03-12T14:04:00;23.02;;;5.28;;
38972;SDS011;25333;50.762;4.470;2023-03-12T14:06:33;22.83;;;5.65;;
38972;SDS011;25333;50.762;4.470;2023-03-12T14:14:31;16.98;;;4.13;;
38972;SDS011;25333;50.762;4.470;2023-03-12T14:17:22;25.10;;;6.18;;
38972;SDS011;25333;50.762;4.470;2023-03-12T14:22:30;23.13;;;5.78;;
38972;SDS011;25333;50.762;4.470;2023-03-12T14:25:00;19.95;;;4.88;;
38972;SDS011;25333;50.762;4.470;2023-03-12T14:27:36;14.05;;;4.90;;
38972;SDS011;25333;50.762;4.470;2023-03-12T14:30:12;19.23;;;4.32;;
38972;SDS011;25333;50.762;4.470;2023-03-12T14:32:45;14.80;;;5.15;;
38972;SDS011;25333;50.762;4.470;2023-03-12T14:35:25;19.88;;;5.07;;
38972;SDS011;25333;50.762;4.470;2023-03-12T14:37:58;19.25;;;4.45;;
38972;SDS011;25333;50.762;4.470;2023-03-12T14:40:37;18.43;;;4.47;;
38972;SDS011;25333;50.762;4.470;2023-03-12T14:45:55;15.80;;;3.85;;
38972;SDS011;25333;50.762;4.470;2023-03-12T14:48:29;17.15;;;5.30;;
38972;SDS011;25333;50.762;4.470;2023-03-12T14:51:02;14.43;;;3.50;;
38972;SDS011;25333;50.762;4.470;2023-03-12T14:53:31;11.95;;;3.38;;
38972;SDS011;25333;50.762;4.470;2023-03-12T14:58:29;15.48;;;4.03;;
38972;SDS011;25333;50.762;4.470;2023-03-12T15:00:57;16.05;;;4.20;;
38972;SDS011;25333;50.762;4.470;2023-03-12T15:03:26;14.43;;;3.65;;
38972;SDS011;25333;50.762;4.470;2023-03-12T15:05:53;19.30;;;4.57;;
38972;SDS011;25333;50.762;4.470;2023-03-12T15:08:20;15.18;;;4.15;;
38972;SDS011;25333;50.762;4.470;2023-03-12T15:10:49;13.00;;;3.55;;
38972;SDS011;25333;50.762;4.470;2023-03-12T15:13:17;16.80;;;4.03;;
38972;SDS011;25333;50.762;4.470;2023-03-12T15:15:45;17.42;;;4.15;;
38972;SDS011;25333;50.762;4.470;2023-03-12T15:18:21;14.48;;;3.92;;
38972;SDS011;25333;50.762;4.470;2023-03-12T15:20:56;16.30;;;4.55;;
38972;SDS011;25333;50.762;4.470;2023-03-12T15:23:23;19.05;;;4.30;;
38972;SDS011;25333;50.762;4.470;2023-03-12T15:28:39;14.45;;;4.85;;
38972;SDS011;25333;50.762;4.470;2023-03-12T15:33:41;14.30;;;3.85;;
38972;SDS011;25333;50.762;4.470;2023-03-12T15:38:47;17.52;;;4.22;;
38972;SDS011;25333;50.762;4.470;2023-03-12T15:41:24;19.98;;;4.80;;
38972;SDS011;25333;50.762;4.470;2023-03-12T15:44:21;12.10;;;3.43;;
38972;SDS011;25333;50.762;4.470;2023-03-12T15:47:10;11.85;;;3.72;;
38972;SDS011;25333;50.762;4.470;2023-03-12T15:49:42;16.80;;;4.45;;
38972;SDS011;25333;50.762;4.470;2023-03-12T15:57:25;17.67;;;4.18;;
38972;SDS011;25333;50.762;4.470;2023-03-12T16:00:05;15.43;;;4.22;;
38972;SDS011;25333;50.762;4.470;2023-03-12T16:02:36;21.50;;;4.67;;
38972;SDS011;25333;50.762;4.470;2023-03-12T16:05:10;14.65;;;3.75;;
38972;SDS011;25333;50.762;4.470;2023-03-12T16:07:36;18.97;;;3.63;;
38972;SDS011;25333;50.762;4.470;2023-03-12T16:10:03;12.13;;;4.82;;
38972;SDS011;25333;50.762;4.470;2023-03-12T16:12:29;16.83;;;4.53;;
38972;SDS011;25333;50.762;4.470;2023-03-12T16:14:54;17.30;;;4.93;;
38972;SDS011;25333;50.762;4.470;2023-03-12T16:17:21;17.92;;;5.15;;
38972;SDS011;25333;50.762;4.470;2023-03-12T16:19:47;18.70;;;5.22;;
38972;SDS011;25333;50.762;4.470;2023-03-12T16:22:13;13.50;;;3.73;;
38972;SDS011;25333;50.762;4.470;2023-03-12T16:24:39;18.02;;;4.40;;
38972;SDS011;25333;50.762;4.470;2023-03-12T16:27:05;19.23;;;3.85;;
38972;SDS011;25333;50.762;4.470;2023-03-12T16:29:37;20.65;;;4.72;;
38972;SDS011;25333;50.762;4.470;2023-03-12T16:32:14;13.13;;;3.88;;
38972;SDS011;25333;50.762;4.470;2023-03-12T16:34:40;15.90;;;4.00;;
38972;SDS011;25333;50.762;4.470;2023-03-12T16:37:10;13.43;;;4.07;;
38972;SDS011;25333;50.762;4.470;2023-03-12T16:39:36;17.27;;;3.97;;
38972;SDS011;25333;50.762;4.470;2023-03-12T16:42:02;18.17;;;4.28;;
38972;SDS011;25333;50.762;4.470;2023-03-12T16:44:36;14.80;;;4.20;;
38972;SDS011;25333;50.762;4.470;2023-03-12T16:47:04;17.48;;;4.13;;
38972;SDS011;25333;50.762;4.470;2023-03-12T16:49:33;20.60;;;5.03;;
38972;SDS011;25333;50.762;4.470;2023-03-12T16:51:59;23.50;;;4.60;;
38972;SDS011;25333;50.762;4.470;2023-03-12T16:54:25;18.80;;;3.90;;
38972;SDS011;25333;50.762;4.470;2023-03-12T16:56:51;16.35;;;3.80;;
38972;SDS011;25333;50.762;4.470;2023-03-12T16:59:26;18.38;;;3.63;;
38972;SDS011;25333;50.762;4.470;2023-03-12T17:01:55;11.65;;;4.03;;
38972;SDS011;25333;50.762;4.470;2023-03-12T17:04:21;17.38;;;4.07;;
38972;SDS011;25333;50.762;4.470;2023-03-12T17:06:47;22.63;;;4.73;;
38972;SDS011;25333;50.762;4.470;2023-03-12T17:09:12;13.38;;;3.63;;
38972;SDS011;25333;50.762;4.470;2023-03-12T17:11:38;21.90;;;4.40;;
38972;SDS011;25333;50.762;4.470;2023-03-12T17:14:25;12.90;;;3.10;;
38972;SDS011;25333;50.762;4.470;2023-03-12T17:16:51;18.02;;;3.45;;
38972;SDS011;25333;50.762;4.470;2023-03-12T17:19:17;17.65;;;4.05;;